Time;durP1;ratioP1;P1;durP2;ratioP2;P2;SDS_P1;SDS_P2;PMS_P1;PMS_P2;Temp;Humidity;BMP_temperature;BMP_pressure;BME280_temperature;BME280_humidity;BME280_pressure;Samples;Min_cycle;Max_cycle;Signal;HPM_P1;HPM_P2
2023/03/21 00:02:03;;;;;;;78.77;31.20;;;;;;;-147.16;92.44;76758.47;3979202;30;22179;-64
2023/03/21 00:04:30;;;;;;;81.07;29.97;;;;;;;-147.16;92.58;76768.56;3968928;30;20254;-68
2023/03/21 00:07:16;;;;;;;76.63;29.73;;;;;;;-147.16;92.42;76758.47;3977703;30;20708;-64
2023/03/21 00:09:42;;;;;;;79.73;31.57;;;;;;;-147.16;92.63;76768.56;3969430;30;20255;-66
2023/03/21 00:12:10;;;;;;;83.90;30.80;;;;;;;-147.16;92.41;76770.59;3953837;30;20656;-66
2023/03/21 00:14:38;;;;;;;81.57;31.97;;;;;;;-147.16;93.01;76764.53;3949235;30;20679;-66
2023/03/21 00:17:04;;;;;;;80.87;30.80;;;;;;;-147.16;93.07;76770.59;3951578;30;20251;-68
2023/03/21 00:19:31;;;;;;;73.53;29.83;;;;;;;-147.16;93.02;76756.44;3942184;30;22569;-68
2023/03/21 00:21:57;;;;;;;77.67;30.07;;;;;;;-147.16;92.94;76750.34;3948277;30;21154;-66
2023/03/21 00:24:34;;;;;;;80.80;30.70;;;;;;;-147.16;92.60;76756.44;3969642;30;20258;-68
2023/03/21 00:27:01;;;;;;;81.73;31.30;;;;;;;-147.16;92.56;76750.34;3972372;30;20265;-69
2023/03/21 00:29:48;;;;;;;76.40;29.03;;;;;;;-147.16;92.38;76746.31;3971939;30;21317;-68
2023/03/21 00:32:16;;;;;;;78.33;30.53;;;;;;;-147.16;92.25;76740.22;3975741;30;20244;-68
2023/03/21 00:34:42;;;;;;;73.90;28.53;;;;;;;-147.16;92.22;76754.41;3971447;30;20246;-65
2023/03/21 00:37:27;;;;;;;76.57;29.93;;;;;;;-147.16;92.13;76758.47;3969593;30;20369;-70
2023/03/21 00:39:53;;;;;;;87.50;32.50;;;;;;;-147.16;92.14;76770.59;3969225;30;20338;-66
2023/03/21 00:42:20;;;;;;;78.53;31.97;;;;;;;-147.16;92.13;76756.44;3971302;30;20328;-68
2023/03/21 00:44:46;;;;;;;76.37;30.20;;;;;;;-147.16;92.36;76764.53;3974286;30;20251;-66
2023/03/21 00:47:13;;;;;;;80.33;31.53;;;;;;;-147.16;92.83;76764.53;3969603;30;20248;-64
2023/03/21 00:49:40;;;;;;;74.00;29.60;;;;;;;-147.16;92.59;76764.53;3971248;30;20251;-64
2023/03/21 00:52:08;;;;;;;85.30;30.60;;;;;;;-147.16;92.89;76772.63;3971313;30;20399;-67
2023/03/21 00:54:50;;;;;;;87.90;31.57;;;;;;;-147.16;93.19;76764.53;3969941;30;20315;-66
2023/03/21 00:57:17;;;;;;;81.70;31.03;;;;;;;-147.16;93.03;76766.56;3966859;30;20349;-70
2023/03/21 00:59:47;;;;;;;86.27;31.67;;;;;;;-147.16;92.84;76764.53;3970659;30;20291;-65
2023/03/21 01:02:21;;;;;;;83.40;32.23;;;;;;;-147.16;92.62;76768.56;3974733;30;20257;-67
2023/03/21 01:04:49;;;;;;;85.63;31.73;;;;;;;-147.16;92.88;76768.56;3970436;30;20243;-67
2023/03/21 01:07:15;;;;;;;86.87;31.80;;;;;;;-147.16;92.86;76766.56;3988597;30;20527;-67
2023/03/21 01:09:42;;;;;;;85.33;32.40;;;;;;;-147.16;92.95;76764.53;3959894;30;23094;-64
2023/03/21 01:12:09;;;;;;;77.73;30.60;;;;;;;-147.16;92.96;76756.44;3976692;30;21435;-65
2023/03/21 01:14:36;;;;;;;89.03;30.80;;;;;;;-147.16;93.28;76770.59;3966894;30;21074;-67
2023/03/21 01:17:03;;;;;;;75.30;30.47;;;;;;;-147.16;93.36;76758.47;3951598;30;20259;-64
2023/03/21 01:19:30;;;;;;;76.20;29.97;;;;;;;-147.16;93.11;76746.31;3940849;30;20687;-71
2023/03/21 01:22:15;;;;;;;82.87;30.13;;;;;;;-147.16;93.11;76762.50;3953892;30;21272;-67
2023/03/21 01:24:42;;;;;;;84.17;30.77;;;;;;;-147.16;93.08;76760.47;3949987;30;20253;-66
2023/03/21 01:27:22;;;;;;;84.73;32.33;;;;;;;-147.16;93.27;76772.63;3955226;30;21201;-69
2023/03/21 01:29:48;;;;;;;91.17;33.03;;;;;;;-147.16;93.25;76772.63;3957511;30;20341;-67
2023/03/21 01:32:15;;;;;;;83.43;31.00;;;;;;;-147.16;93.23;76780.72;3951401;30;20282;-70
2023/03/21 01:34:42;;;;;;;84.07;29.97;;;;;;;-147.16;93.53;76762.50;3947009;30;20248;-66
2023/03/21 01:37:09;;;;;;;81.87;31.10;;;;;;;-147.16;93.74;76766.56;3941432;30;21859;-65
2023/03/21 01:39:36;;;;;;;89.00;31.90;;;;;;;-147.16;93.65;76766.56;3960731;30;20482;-67
2023/03/21 01:42:03;;;;;;;80.90;30.63;;;;;;;-147.16;93.65;76768.56;3951600;30;21354;-64
2023/03/21 01:44:30;;;;;;;84.07;30.13;;;;;;;-147.16;93.65;76768.56;3969956;30;20361;-65
2023/03/21 01:46:58;;;;;;;76.37;30.07;;;;;;;-147.16;93.36;76768.56;3976178;30;20337;-67
2023/03/21 01:49:40;;;;;;;82.40;30.17;;;;;;;-147.16;93.74;76782.75;3973868;30;20251;-67
2023/03/21 01:52:13;;;;;;;76.87;29.53;;;;;;;-147.16;93.53;76780.72;3963652;30;25975;-69
2023/03/21 01:54:56;;;;;;;78.60;30.47;;;;;;;-147.16;93.52;76778.69;3973223;30;21603;-64
2023/03/21 01:57:31;;;;;;;81.43;30.57;;;;;;;-147.16;93.72;76780.72;3968897;30;22521;-67
2023/03/21 02:00:11;;;;;;;81.70;29.97;;;;;;;-147.16;93.80;76778.69;3975351;30;20247;-68
2023/03/21 02:02:54;;;;;;;80.43;29.63;;;;;;;-147.16;93.97;76780.72;3974750;30;20314;-66
2023/03/21 02:06:00;;;;;;;78.93;29.40;;;;;;;-147.16;93.93;76772.63;3972773;30;20252;-67
2023/03/21 02:08:28;;;;;;;77.70;29.30;;;;;;;-147.16;93.92;76782.75;3996073;30;21555;-67
2023/03/21 02:11:06;;;;;;;77.43;28.60;;;;;;;-147.16;93.97;76768.56;3968724;30;22004;-68
2023/03/21 02:13:34;;;;;;;67.03;27.10;;;;;;;-147.16;93.56;76766.56;3973827;30;22004;-67
2023/03/21 02:16:08;;;;;;;65.30;28.10;;;;;;;-147.16;93.59;76758.47;3970380;30;21341;-68
2023/03/21 02:18:47;;;;;;;70.97;26.03;;;;;;;-147.16;93.55;76774.66;3970657;30;20249;-67
2023/03/21 02:21:25;;;;;;;69.87;26.93;;;;;;;-147.16;93.51;76794.91;3969781;30;22982;-66
2023/03/21 02:24:13;;;;;;;64.87;25.70;;;;;;;-147.16;93.00;76790.84;3973623;30;20420;-68
2023/03/21 02:26:56;;;;;;;60.63;25.23;;;;;;;-147.16;93.27;76780.72;3981265;30;23896;-67
2023/03/21 02:29:47;;;;;;;61.93;25.00;;;;;;;-147.16;93.43;76796.91;3968988;30;20261;-66
2023/03/21 02:32:36;;;;;;;64.87;25.07;;;;;;;-147.16;92.96;76788.81;3971832;30;20426;-66
2023/03/21 02:35:12;;;;;;;63.10;24.23;;;;;;;-147.16;92.90;76792.88;3982430;30;20399;-67
2023/03/21 02:37:45;;;;;;;60.73;23.37;;;;;;;-147.16;93.28;76803.00;3979760;30;21822;-67
2023/03/21 02:40:31;;;;;;;62.90;25.27;;;;;;;-147.16;92.99;76780.72;3979121;30;20632;-67
2023/03/21 02:43:09;;;;;;;59.70;24.07;;;;;;;-147.16;92.96;76780.72;3979192;30;20260;-67
2023/03/21 02:45:52;;;;;;;64.20;25.13;;;;;;;-147.16;93.33;76784.78;3974921;30;20256;-69
2023/03/21 02:48:25;;;;;;;69.30;25.83;;;;;;;-147.16;93.28;76786.81;3971907;30;20251;-66
2023/03/21 02:51:04;;;;;;;65.97;25.17;;;;;;;-147.16;93.43;76792.88;3976604;30;20251;-68
2023/03/21 02:53:36;;;;;;;69.80;26.93;;;;;;;-147.16;93.44;76788.81;3966149;30;25684;-68
2023/03/21 02:56:03;;;;;;;65.07;26.63;;;;;;;-147.16;94.01;76784.78;3970346;30;25749;-65
2023/03/21 02:58:31;;;;;;;70.80;28.20;;;;;;;-147.16;94.08;76790.84;3965530;30;20247;-68
2023/03/21 03:00:57;;;;;;;68.20;26.00;;;;;;;-147.16;94.00;76792.88;3974111;30;20298;-69
2023/03/21 03:03:25;;;;;;;70.90;28.27;;;;;;;-147.16;93.70;76792.88;3975585;30;20326;-64
2023/03/21 03:06:02;;;;;;;71.97;26.93;;;;;;;-147.16;93.80;76778.69;3974957;30;20947;-66
2023/03/21 03:09:11;;;;;;;75.00;28.83;;;;;;;-147.16;93.77;76780.72;3963913;30;21403;-66
2023/03/21 03:11:42;;;;;;;68.87;26.07;;;;;;;-147.16;93.56;76796.91;3976567;30;21190;-66
2023/03/21 03:14:41;;;;;;;73.60;29.23;;;;;;;-147.16;93.64;76794.91;3974717;30;20311;-66
2023/03/21 03:17:49;;;;;;;73.27;27.97;;;;;;;-147.16;93.23;76784.78;3984988;30;20251;-64
2023/03/21 03:20:34;;;;;;;67.33;28.27;;;;;;;-147.16;93.50;76766.56;3970494;30;20240;-66
2023/03/21 03:23:22;;;;;;;66.47;26.17;;;;;;;-147.16;92.76;76784.78;3989634;30;20247;-67
2023/03/21 03:26:01;;;;;;;62.20;25.93;;;;;;;-147.16;92.96;76792.88;3972585;30;20243;-66
2023/03/21 03:28:32;;;;;;;64.60;24.97;;;;;;;-147.16;92.96;76784.78;3974332;30;20314;-66
2023/03/21 03:31:00;;;;;;;58.30;24.73;;;;;;;-147.16;92.88;76790.84;3974468;30;21346;-66
2023/03/21 03:33:38;;;;;;;58.67;23.60;;;;;;;-147.16;93.04;76790.84;3975252;30;20250;-67
2023/03/21 03:36:07;;;;;;;58.63;24.33;;;;;;;-147.16;92.67;76792.88;3975412;30;20236;-66
2023/03/21 03:38:37;;;;;;;55.23;23.77;;;;;;;-147.16;93.00;76792.88;3969799;30;20278;-64
2023/03/21 03:41:10;;;;;;;63.77;24.00;;;;;;;-147.16;92.67;76776.69;3972947;30;20707;-66
2023/03/21 03:43:49;;;;;;;58.33;24.13;;;;;;;-147.16;92.86;76788.81;3967863;30;20252;-68
2023/03/21 03:46:22;;;;;;;52.00;23.27;;;;;;;-147.16;92.28;76772.63;3969360;30;20323;-66
2023/03/21 03:48:54;;;;;;;55.73;23.40;;;;;;;-147.16;92.55;76792.88;3975740;30;23199;-68
2023/03/21 03:51:27;;;;;;;65.63;24.67;;;;;;;-147.16;92.44;76792.88;3975155;30;20304;-67
2023/03/21 03:54:25;;;;;;;59.53;26.10;;;;;;;-147.16;92.22;76800.97;3974714;30;20334;-69
2023/03/21 03:56:52;;;;;;;59.73;24.93;;;;;;;-147.16;92.76;76805.03;3967653;30;21038;-66
2023/03/21 03:59:22;;;;;;;59.90;26.17;;;;;;;-147.16;92.76;76803.00;3975703;30;20396;-65
2023/03/21 04:01:54;;;;;;;59.97;27.17;;;;;;;-147.16;92.78;76809.06;3969136;30;21026;-64
2023/03/21 04:04:21;;;;;;;65.03;27.20;;;;;;;-147.16;92.96;76800.97;3972322;30;20247;-66
2023/03/21 04:06:52;;;;;;;63.63;27.40;;;;;;;-147.16;92.96;76798.94;3970461;30;20355;-68
2023/03/21 04:09:18;;;;;;;65.20;25.60;;;;;;;-147.16;92.98;76780.72;3962557;30;20290;-66
2023/03/21 04:11:57;;;;;;;60.00;26.03;;;;;;;-147.16;92.91;76792.88;3976829;30;20373;-64
2023/03/21 04:14:24;;;;;;;57.77;25.23;;;;;;;-147.16;92.47;76794.91;3975530;30;20442;-65
2023/03/21 04:17:04;;;;;;;58.43;24.87;;;;;;;-147.16;92.44;76794.91;3975569;30;20247;-67
2023/03/21 04:19:31;;;;;;;50.77;22.87;;;;;;;-147.16;92.68;76796.91;3970948;30;20999;-68
2023/03/21 04:21:57;;;;;;;50.57;22.97;;;;;;;-147.16;92.91;76800.97;3975544;30;21301;-65
2023/03/21 04:24:24;;;;;;;56.83;23.70;;;;;;;-147.16;92.93;76807.03;3979863;30;20247;-65
2023/03/21 04:26:52;;;;;;;55.23;23.17;;;;;;;-147.16;92.85;76817.16;3980446;30;20782;-66
2023/03/21 04:29:19;;;;;;;55.47;23.23;;;;;;;-147.16;92.74;76815.16;3976581;30;21171;-67
2023/03/21 04:31:48;;;;;;;52.63;23.40;;;;;;;-147.16;92.99;76819.19;3978112;30;20258;-69
2023/03/21 04:34:15;;;;;;;48.27;22.03;;;;;;;-147.16;93.33;76796.91;3972433;30;20254;-66
2023/03/21 04:36:43;;;;;;;54.77;22.33;;;;;;;-147.16;92.57;76803.00;3976172;30;20659;-67
2023/03/21 04:39:11;;;;;;;52.50;22.77;;;;;;;-147.16;92.79;76813.13;3974147;30;20239;-69
2023/03/21 04:41:39;;;;;;;56.30;23.00;;;;;;;-147.16;92.36;76819.19;3975565;30;20433;-67
2023/03/21 04:44:06;;;;;;;50.50;22.90;;;;;;;-147.16;92.32;76823.25;3965670;30;21298;-67
2023/03/21 04:46:34;;;;;;;49.07;21.47;;;;;;;-147.16;93.09;76817.16;3971645;30;20243;-66
2023/03/21 04:49:01;;;;;;;47.87;22.03;;;;;;;-147.16;92.87;76805.03;3974548;30;20800;-66
2023/03/21 04:51:28;;;;;;;47.10;20.47;;;;;;;-147.16;93.08;76807.03;3988608;30;23062;-69
2023/03/21 04:53:58;;;;;;;47.53;21.53;;;;;;;-147.16;92.91;76807.03;3972587;30;20284;-68
2023/03/21 04:56:31;;;;;;;44.57;20.83;;;;;;;-147.16;92.54;76807.03;3971741;30;20584;-68
2023/03/21 04:58:59;;;;;;;46.53;20.33;;;;;;;-147.16;92.34;76809.06;3973237;30;20270;-67
2023/03/21 05:01:29;;;;;;;47.47;21.67;;;;;;;-147.16;92.34;76817.16;3973242;30;20287;-68
2023/03/21 05:03:57;;;;;;;49.20;20.60;;;;;;;-147.16;92.54;76819.19;3962248;30;21470;-68
2023/03/21 05:06:25;;;;;;;42.83;19.80;;;;;;;-147.16;92.86;76798.94;3967642;30;26511;-66
2023/03/21 05:08:52;;;;;;;42.87;20.20;;;;;;;-147.16;92.17;76792.88;3966497;30;20380;-69
2023/03/21 05:11:19;;;;;;;43.33;19.33;;;;;;;-147.16;92.02;76805.03;3975886;30;20243;-67
2023/03/21 05:13:45;;;;;;;40.93;19.23;;;;;;;-147.16;91.90;76798.94;3977958;30;20330;-65
2023/03/21 05:16:12;;;;;;;44.30;19.70;;;;;;;-147.16;92.02;76805.03;3975345;30;20251;-67
2023/03/21 05:18:38;;;;;;;45.00;19.73;;;;;;;-147.16;91.85;76815.16;3978714;30;20251;-65
2023/03/21 05:21:12;;;;;;;48.03;21.57;;;;;;;-147.16;92.12;76825.25;3979928;30;20258;-65
2023/03/21 05:23:38;;;;;;;44.57;20.07;;;;;;;-147.16;92.33;76823.25;3987741;30;20935;-66
2023/03/21 05:26:06;;;;;;;48.17;20.77;;;;;;;-147.16;92.86;76829.31;3981649;30;20628;-68
2023/03/21 05:28:35;;;;;;;47.73;21.27;;;;;;;-147.16;92.84;76823.25;3972775;30;20266;-67
2023/03/21 05:31:03;;;;;;;47.83;20.87;;;;;;;-147.16;92.58;76821.22;3977925;30;20251;-67
2023/03/21 05:33:30;;;;;;;50.87;21.80;;;;;;;-147.16;92.69;76829.31;3977847;30;20247;-67
2023/03/21 05:35:57;;;;;;;51.27;22.30;;;;;;;-147.16;92.42;76823.25;3968987;30;20263;-66
2023/03/21 05:38:24;;;;;;;45.90;20.30;;;;;;;-147.16;92.07;76817.16;4014893;30;20246;-67
2023/03/21 05:40:51;;;;;;;47.40;20.67;;;;;;;-147.16;92.11;76819.19;3989173;30;20502;-67
2023/03/21 05:43:17;;;;;;;51.27;21.90;;;;;;;-147.16;92.39;76829.31;4016505;30;20674;-65
2023/03/21 05:45:44;;;;;;;49.27;21.00;;;;;;;-147.16;92.62;76807.03;3998446;30;20305;-65
2023/03/21 05:48:11;;;;;;;49.70;21.43;;;;;;;-147.16;92.43;76821.22;3987479;30;20248;-67
2023/03/21 05:50:38;;;;;;;54.27;22.27;;;;;;;-147.16;92.16;76807.03;3987646;30;20277;-68
2023/03/21 05:53:04;;;;;;;43.43;20.43;;;;;;;-147.16;92.15;76794.91;3995640;30;20252;-66
2023/03/21 05:55:31;;;;;;;47.43;21.03;;;;;;;-147.16;91.50;76792.88;3979802;30;20271;-64
2023/03/21 05:57:58;;;;;;;46.43;20.87;;;;;;;-147.16;91.18;76805.03;3985684;30;26395;-65
2023/03/21 06:00:25;;;;;;;57.47;22.77;;;;;;;-147.16;91.46;76811.09;4012422;30;20285;-67
2023/03/21 06:02:51;;;;;;;46.87;21.43;;;;;;;-147.16;91.11;76811.09;3983822;30;20892;-65
2023/03/21 06:05:18;;;;;;;44.53;20.73;;;;;;;-147.16;91.08;76809.06;3985552;30;21588;-66
2023/03/21 06:07:45;;;;;;;44.20;19.80;;;;;;;-147.16;90.52;76815.16;4012573;30;20255;-67
2023/03/21 06:10:12;;;;;;;41.80;19.47;;;;;;;-147.16;90.43;76825.25;3990040;30;20433;-67
2023/03/21 06:12:38;;;;;;;41.87;18.40;;;;;;;-147.16;90.91;76803.00;3981034;30;20255;-66
2023/03/21 06:15:07;;;;;;;41.77;18.67;;;;;;;-147.16;90.35;76805.03;3998564;30;20251;-66
2023/03/21 06:17:34;;;;;;;35.50;17.70;;;;;;;-147.16;90.28;76800.97;3986162;30;21309;-68
2023/03/21 06:20:05;;;;;;;37.60;17.13;;;;;;;-147.16;89.89;76792.88;4032859;30;20248;-66
2023/03/21 06:22:33;;;;;;;36.13;16.93;;;;;;;-147.16;90.11;76794.91;3988552;30;20239;-68
2023/03/21 06:25:00;;;;;;;32.83;16.87;;;;;;;-147.16;89.43;76772.63;4010407;30;20248;-66
2023/03/21 06:27:27;;;;;;;35.57;17.37;;;;;;;-147.16;88.98;76776.69;3995248;30;20244;-66
2023/03/21 06:29:53;;;;;;;25.50;14.03;;;;;;;-147.16;87.95;76770.59;3985309;30;20255;-68
2023/03/21 06:32:20;;;;;;;33.50;14.73;;;;;;;-147.16;87.87;76776.69;3991237;30;20263;-66
2023/03/21 06:34:47;;;;;;;30.87;14.87;;;;;;;-147.16;88.02;76780.72;3998084;30;21566;-65
2023/03/21 06:37:13;;;;;;;33.73;14.33;;;;;;;-147.16;87.89;76780.72;4021267;30;20247;-64
2023/03/21 06:39:40;;;;;;;28.33;13.87;;;;;;;-147.16;87.53;76780.72;3983026;30;20854;-64
2023/03/21 06:42:07;;;;;;;25.50;12.90;;;;;;;-147.16;87.27;76774.66;3995209;30;22500;-64
2023/03/21 06:44:34;;;;;;;27.33;13.07;;;;;;;-147.16;87.33;76788.81;3977258;30;26718;-66
2023/03/21 06:47:00;;;;;;;24.93;13.50;;;;;;;-147.16;86.74;76770.59;3976181;30;20321;-62
2023/03/21 06:49:28;;;;;;;26.97;13.20;;;;;;;-147.16;87.05;76792.88;3978902;30;21999;-66
2023/03/21 06:51:54;;;;;;;23.97;12.60;;;;;;;-147.16;87.12;76800.97;3973472;30;20323;-66
2023/03/21 06:54:21;;;;;;;25.33;13.07;;;;;;;-147.16;87.22;76792.88;3977682;30;21826;-62
2023/03/21 06:56:48;;;;;;;27.07;13.60;;;;;;;-147.16;87.57;76815.16;3974099;30;20458;-72
2023/03/21 06:59:15;;;;;;;26.80;12.50;;;;;;;-147.16;87.21;76805.03;3985004;30;20243;-66
2023/03/21 07:01:42;;;;;;;28.70;12.83;;;;;;;-147.16;86.82;76792.88;3981209;30;20319;-67
2023/03/21 07:04:09;;;;;;;26.83;12.17;;;;;;;-147.16;86.36;76798.94;3979272;30;20259;-64
2023/03/21 07:06:37;;;;;;;21.50;10.87;;;;;;;-147.16;85.87;76800.97;3990777;30;20243;-66
2023/03/21 07:09:04;;;;;;;23.27;12.00;;;;;;;-147.16;85.96;76800.97;3991861;30;22965;-64
2023/03/21 07:11:31;;;;;;;23.87;11.60;;;;;;;-147.16;86.14;76796.91;3982904;30;20307;-65
2023/03/21 07:13:58;;;;;;;23.17;11.70;;;;;;;-147.16;86.00;76807.03;3978188;30;21534;-65
2023/03/21 07:16:24;;;;;;;22.03;11.33;;;;;;;-147.16;85.87;76788.81;3981743;30;20255;-63
2023/03/21 07:18:52;;;;;;;21.90;11.20;;;;;;;-147.16;84.96;76778.69;3983839;30;22770;-63
2023/03/21 07:21:18;;;;;;;21.70;10.50;;;;;;;-147.16;84.85;76762.50;3979243;30;21330;-64
2023/03/21 07:23:46;;;;;;;21.33;10.43;;;;;;;-147.16;84.95;76738.22;3990215;30;22141;-62
2023/03/21 07:26:14;;;;;;;22.57;10.27;;;;;;;-147.16;84.60;76722.00;3985308;30;20252;-65
2023/03/21 07:28:41;;;;;;;24.73;10.37;;;;;;;-147.16;83.84;76722.00;3977726;30;20250;-66
2023/03/21 07:31:13;;;;;;;21.53;10.27;;;;;;;-147.16;83.20;76720.00;4001756;30;20461;-64
2023/03/21 07:33:40;;;;;;;17.97;9.47;;;;;;;-147.16;82.76;76720.00;3979244;30;26722;-62
2023/03/21 07:36:11;;;;;;;18.00;10.07;;;;;;;-147.16;83.36;76748.34;3997991;30;20248;-64
2023/03/21 07:38:38;;;;;;;20.23;9.93;;;;;;;-147.16;84.54;76738.22;3997726;30;20294;-62
2023/03/21 07:41:05;;;;;;;17.97;9.17;;;;;;;-147.16;83.64;76724.03;4048598;30;20270;-62
2023/03/21 07:43:32;;;;;;;17.47;9.03;;;;;;;-147.16;82.97;76699.75;4042535;30;20407;-64
2023/03/21 07:46:00;;;;;;;18.63;9.97;;;;;;;-147.16;82.74;76671.41;4041115;30;22244;-61
2023/03/21 07:48:27;;;;;;;16.73;8.50;;;;;;;-147.16;81.69;76691.66;4023043;30;20263;-61
2023/03/21 07:50:54;;;;;;;19.47;9.93;;;;;;;-147.16;82.26;76699.75;4027118;30;21043;-62
2023/03/21 07:53:21;;;;;;;16.47;8.10;;;;;;;-147.16;81.60;76659.25;3999621;30;20323;-62
2023/03/21 07:55:52;;;;;;;15.53;7.73;;;;;;;-147.16;80.03;76634.97;3988185;30;20636;-61
2023/03/21 07:58:18;;;;;;;16.17;8.40;;;;;;;-147.16;79.24;76673.44;3991727;30;22676;-63
2023/03/21 08:00:45;;;;;;;13.30;7.20;;;;;;;-147.16;80.53;76695.69;3982860;30;21131;-63
2023/03/21 08:03:12;;;;;;;15.33;8.10;;;;;;;-147.16;80.29;76736.19;3989735;30;20263;-61
2023/03/21 08:05:39;;;;;;;12.97;8.00;;;;;;;-147.16;80.60;76734.16;4003994;30;20251;-64
2023/03/21 08:08:07;;;;;;;14.97;7.80;;;;;;;-147.16;80.05;76724.03;3999709;30;22487;-61
2023/03/21 08:10:33;;;;;;;16.67;8.87;;;;;;;-147.16;81.09;76720.00;3971427;30;20747;-63
2023/03/21 08:13:00;;;;;;;18.00;9.13;;;;;;;-147.16;80.97;76691.66;3981285;30;21812;-61
2023/03/21 08:15:28;;;;;;;14.60;8.37;;;;;;;-147.16;78.63;76673.44;3993879;30;22653;-65
2023/03/21 08:17:55;;;;;;;15.80;8.20;;;;;;;-147.16;78.46;76673.44;3998293;30;26156;-64
2023/03/21 08:20:22;;;;;;;12.03;6.97;;;;;;;-147.16;77.88;76653.19;3995719;30;21093;-62
2023/03/21 08:22:49;;;;;;;12.37;7.33;;;;;;;-147.16;77.63;76667.34;3978806;30;24426;-63
2023/03/21 08:25:17;;;;;;;14.13;7.73;;;;;;;-147.16;77.78;76649.13;3986914;30;21345;-62
2023/03/21 08:27:44;;;;;;;14.10;7.87;;;;;;;-147.16;76.23;76618.75;3988126;30;20366;-62
2023/03/21 08:30:16;;;;;;;13.07;7.27;;;;;;;-147.16;75.37;76596.50;3992766;30;20247;-62
2023/03/21 08:32:43;;;;;;;11.63;6.77;;;;;;;-147.16;75.46;76622.81;3987853;30;21834;-66
2023/03/21 08:35:12;;;;;;;13.87;7.30;;;;;;;-147.16;75.09;76594.47;3993778;30;21547;-62
2023/03/21 08:37:39;;;;;;;14.20;7.53;;;;;;;-147.16;75.59;76570.19;3993868;30;23272;-61
2023/03/21 08:40:10;;;;;;;14.10;7.53;;;;;;;-147.16;74.59;76547.91;3988780;30;22391;-61
2023/03/21 08:42:37;;;;;;;11.23;6.60;;;;;;;-147.16;73.51;76533.75;3974473;30;20244;-63
2023/03/21 08:45:04;;;;;;;12.30;7.00;;;;;;;-147.16;72.94;76580.31;3977617;30;21299;-63
2023/03/21 08:47:31;;;;;;;12.67;6.97;;;;;;;-147.16;73.92;76582.31;3978274;30;20240;-63
2023/03/21 08:49:58;;;;;;;13.80;7.70;;;;;;;-147.16;75.04;76606.63;3963548;30;21901;-63
2023/03/21 08:52:26;;;;;;;14.80;7.77;;;;;;;-147.16;75.59;76582.31;3985194;30;20356;-61
2023/03/21 08:54:55;;;;;;;16.50;8.93;;;;;;;-147.16;74.88;76582.31;3983416;30;20247;-63
2023/03/21 08:57:22;;;;;;;14.80;8.70;;;;;;;-147.16;74.78;76562.09;3975847;30;20262;-64
2023/03/21 08:59:48;;;;;;;11.87;7.60;;;;;;;-147.16;73.10;76560.06;3997984;30;20313;-63
2023/03/21 09:02:16;;;;;;;12.40;7.30;;;;;;;-147.16;73.39;76606.63;3991747;30;20471;-63
2023/03/21 09:04:43;;;;;;;14.23;7.67;;;;;;;-147.16;73.56;76624.84;4003964;30;20255;-62
2023/03/21 09:07:13;;;;;;;11.77;7.37;;;;;;;-147.16;74.00;76614.72;3980403;30;20364;-62
2023/03/21 09:09:41;;;;;;;13.77;8.00;;;;;;;-147.16;74.51;76620.78;3991934;30;20260;-61
2023/03/21 09:12:07;;;;;;;11.83;7.10;;;;;;;-147.16;74.18;76608.63;3984876;30;21580;-63
2023/03/21 09:14:34;;;;;;;10.93;6.47;;;;;;;-147.16;73.82;76632.94;3974856;30;20301;-63
2023/03/21 09:17:01;;;;;;;9.97;6.07;;;;;;;-147.16;72.93;76632.94;3974925;30;20282;-60
2023/03/21 09:19:29;;;;;;;10.47;6.27;;;;;;;-147.16;72.67;76626.88;3972658;30;20822;-62
2023/03/21 09:21:56;;;;;;;11.40;6.27;;;;;;;-147.16;73.10;76641.03;3971536;30;20957;-63
2023/03/21 09:24:23;;;;;;;9.80;6.27;;;;;;;-147.16;73.76;76651.16;3974396;30;20400;-64
2023/03/21 09:26:50;;;;;;;12.20;7.00;;;;;;;-147.16;74.06;76649.13;3976515;30;20911;-63
2023/03/21 09:29:21;;;;;;;12.50;6.93;;;;;;;-147.16;74.64;76661.28;3973309;30;20429;-65
2023/03/21 09:31:48;;;;;;;11.93;7.70;;;;;;;-147.16;75.19;76667.34;3963284;30;20254;-63
2023/03/21 09:34:15;;;;;;;12.03;7.47;;;;;;;-147.16;75.77;76683.56;3984810;30;20294;-66
2023/03/21 09:36:43;;;;;;;13.43;8.17;;;;;;;-147.16;76.25;76689.63;3973680;30;25765;-65
2023/03/21 09:39:10;;;;;;;12.93;7.27;;;;;;;-147.16;76.57;76697.72;3972933;30;21841;-60
2023/03/21 09:41:40;;;;;;;13.37;8.03;;;;;;;-147.16;77.00;76685.56;3973216;30;20239;-61
2023/03/21 09:44:29;;;;;;;15.37;8.60;;;;;;;-147.16;77.53;76695.69;3995594;30;20376;-63
2023/03/21 09:47:04;;;;;;;13.77;7.63;;;;;;;-147.16;77.31;76671.41;3985880;30;20244;-61
2023/03/21 09:49:34;;;;;;;16.93;8.07;;;;;;;-147.16;76.88;76655.22;3979170;30;25080;-61
2023/03/21 09:52:11;;;;;;;14.03;7.93;;;;;;;-147.16;76.50;76671.41;3979180;30;20244;-60
2023/03/21 09:54:41;;;;;;;14.67;7.20;;;;;;;-147.16;76.32;76645.09;3987188;30;20655;-65
2023/03/21 09:57:38;;;;;;;13.13;7.23;;;;;;;-147.16;76.57;76663.31;3984447;30;26607;-63
2023/03/21 10:00:13;;;;;;;12.23;7.50;;;;;;;-147.16;76.29;76671.41;3989076;30;20255;-62
2023/03/21 10:02:45;;;;;;;11.97;7.40;;;;;;;-147.16;77.07;76673.44;3979009;30;20237;-60
2023/03/21 10:05:18;;;;;;;14.57;7.57;;;;;;;-147.16;77.91;76693.66;3973112;30;20301;-63
2023/03/21 10:07:59;;;;;;;17.23;8.30;;;;;;;-147.16;78.38;76695.69;3971857;30;20656;-62
2023/03/21 10:10:28;;;;;;;17.23;8.33;;;;;;;-147.16;79.80;76720.00;3973522;30;20703;-64
2023/03/21 10:12:55;;;;;;;13.27;7.63;;;;;;;-147.16;80.18;76728.09;3987299;30;20243;-61
2023/03/21 10:15:24;;;;;;;12.47;7.50;;;;;;;-147.16;80.26;76726.06;3979251;30;23798;-62
2023/03/21 10:17:56;;;;;;;13.50;7.50;;;;;;;-147.16;79.62;76717.97;3981860;30;20263;-63
2023/03/21 10:20:25;;;;;;;13.63;7.33;;;;;;;-147.16;79.98;76740.22;3978265;30;20808;-61
2023/03/21 10:22:54;;;;;;;13.33;6.90;;;;;;;-147.16;80.66;76738.22;3974876;30;21435;-63
2023/03/21 10:26:10;;;;;;;13.43;7.73;;;;;;;-147.16;80.85;76709.88;3974386;30;20396;-65
2023/03/21 10:28:43;;;;;;;11.03;6.10;;;;;;;-147.16;79.43;76691.66;3973924;30;20309;-61
2023/03/21 10:31:23;;;;;;;11.30;6.10;;;;;;;-147.16;78.98;76697.72;3987851;30;20313;-62
2023/03/21 10:33:52;;;;;;;13.60;6.23;;;;;;;-147.16;79.43;76697.72;3972760;30;20655;-66
2023/03/21 10:36:24;;;;;;;11.03;5.83;;;;;;;-147.16;80.04;76677.47;3995365;30;20240;-62
2023/03/21 10:39:00;;;;;;;11.40;6.50;;;;;;;-147.16;79.83;76645.09;3995953;30;20284;-62
2023/03/21 10:41:27;;;;;;;13.73;7.57;;;;;;;-147.16;79.95;76624.84;4007172;30;20239;-61
2023/03/21 10:44:13;;;;;;;13.33;7.13;;;;;;;-147.16;79.00;76610.66;4000421;30;20248;-65
2023/03/21 10:47:16;;;;;;;10.60;5.60;;;;;;;-147.16;78.68;76596.50;3988643;30;21398;-64
2023/03/21 10:49:46;;;;;;;8.83;5.07;;;;;;;-147.16;76.85;76572.19;4000428;30;22070;-63
2023/03/21 10:52:32;;;;;;;11.40;4.30;;;;;;;-147.16;75.17;76549.94;3978850;30;20240;-62
2023/03/21 10:55:08;;;;;;;7.77;4.67;;;;;;;-147.16;73.59;76539.81;3998471;30;21436;-58
2023/03/21 10:57:36;;;;;;;10.80;4.70;;;;;;;-147.16;73.63;76529.69;3980922;30;20553;-63
2023/03/21 11:00:14;;;;;;;12.27;5.53;;;;;;;-147.16;74.97;76586.38;3978793;30;22413;-63
2023/03/21 11:02:42;;;;;;;9.33;5.63;;;;;;;-147.16;74.73;76592.44;3976348;30;23119;-62
2023/03/21 11:05:38;;;;;;;10.93;5.50;;;;;;;-147.16;75.82;76602.56;3998249;30;20244;-64
2023/03/21 11:08:11;;;;;;;10.27;6.60;;;;;;;-147.16;76.40;76576.25;3983207;30;20253;-61
2023/03/21 11:10:54;;;;;;;10.07;5.93;;;;;;;-147.16;75.35;76594.47;3976480;30;20350;-63
2023/03/21 11:13:26;;;;;;;7.40;4.93;;;;;;;-147.16;73.61;76594.47;3983532;30;20303;-61
2023/03/21 11:15:58;;;;;;;8.20;5.07;;;;;;;-147.16;72.70;76570.19;3986912;30;20294;-61
2023/03/21 11:18:26;;;;;;;7.97;4.77;;;;;;;-147.16;72.12;76551.97;4013819;30;20266;-60
2023/03/21 11:21:04;;;;;;;8.60;4.87;;;;;;;-147.16;72.90;76543.84;3986738;30;20696;-62
2023/03/21 11:23:33;;;;;;;10.37;5.03;;;;;;;-147.16;72.25;76523.63;4006808;30;20247;-63